メインページ
METAR-TAF:

METAR-TAF

空港 :

ニアメ, ニジェール

ディオリ・アマニ国際空港

緯度: 13-29N, 経度: 002-10E, 海抜: 223m

現時点の気象観測

当レポートは27分前の03:00(UTC)に作成
東/北東の風 4kt
気温 19°C
湿度 19%
気圧 1014 hPa
視程: 2200m
広範な塵

METAR: DRRN 170300Z 07004KT 2200 DU NSC 19/M05 Q1014 TEMPO 1200

時間: 04:27 (03:27 UTC)

予報

当レポートは4時間27分前の23:00(UTC)に作成
予報は17日の 00時(UTC)から 18日の 06時(UTC)まで有効
東/北東の風 8kt
視程: 2500m
広範な塵
17日の 09時(UTC)から 17日の 12時(UTC)まで一時的に
の風 18kt
視程: 1000m
風塵

TAF: DRRN 162300Z 1700/1806 06008KT 2500 DU NSC TEMPO 1709/1712 10018KT 1000 BLDU

4,000以上の空港の気象観測と天気予報(METAR報とTAF報)

利用可能な観測所は地図上に黄色い丸と赤い丸で示す。

丸の上にカーソルを重ねると観測所名を参照できる。

次にクリックすると気象観測と天気予報を参照できる。

マップの切り替え:黒色「×」印の緑ボタンをクリックして拡大、「-」印の緑ボタンをクリックして縮小、緑色の三角印をクリックして隣りの地図に切り替え


METAR-TAF: